Time;durP1;ratioP1;P1;durP2;ratioP2;P2;SDS_P1;SDS_P2;PMS_P1;PMS_P2;Temp;Humidity;BMP_temperature;BMP_pressure;BME280_temperature;BME280_humidity;BME280_pressure;Samples;Min_cycle;Max_cycle;Signal;HPM_P1;HPM_P2
2024/01/08 00:02:41;;;;;;;10.77;6.28;;;-4.90;90.40;;;;;;6209183;23;20020;-74
2024/01/08 00:05:27;;;;;;;11.95;5.55;;;-5.00;90.40;;;;;;6209853;23;20009;-78
2024/01/08 00:08:14;;;;;;;11.27;5.35;;;-4.90;90.40;;;;;;6211955;23;20016;-78
2024/01/08 00:11:00;;;;;;;10.73;5.40;;;-4.90;90.50;;;;;;6210680;23;20042;-78
2024/01/08 00:13:46;;;;;;;14.43;6.57;;;-5.00;90.50;;;;;;6210224;23;20020;-77
2024/01/08 00:16:32;;;;;;;13.27;6.35;;;-5.00;90.50;;;;;;6209647;23;20086;-77
2024/01/08 00:19:18;;;;;;;12.70;6.85;;;-5.00;90.50;;;;;;6210715;23;20283;-78
2024/01/08 00:22:04;;;;;;;10.25;5.55;;;-5.00;90.60;;;;;;6210860;23;20016;-78
2024/01/08 00:24:50;;;;;;;10.32;5.63;;;-5.00;90.60;;;;;;6210640;23;20013;-78
2024/01/08 00:27:36;;;;;;;11.70;6.95;;;-5.10;90.60;;;;;;6210415;23;20024;-77
2024/01/08 00:30:22;;;;;;;10.02;4.93;;;-5.00;90.70;;;;;;6209522;23;20079;-77
2024/01/08 00:33:08;;;;;;;10.82;6.28;;;-5.10;90.80;;;;;;6210094;23;20004;-78
2024/01/08 00:35:54;;;;;;;11.55;7.05;;;-5.10;90.80;;;;;;6210570;23;20092;-78
2024/01/08 00:38:40;;;;;;;12.68;7.10;;;-5.10;90.80;;;;;;6209884;23;20016;-77
2024/01/08 00:41:26;;;;;;;10.27;5.53;;;-5.10;90.80;;;;;;6208658;23;20020;-77
2024/01/08 00:44:12;;;;;;;12.15;5.72;;;-5.10;90.90;;;;;;6209988;23;20036;-77
2024/01/08 00:46:58;;;;;;;12.40;6.03;;;-5.10;90.90;;;;;;6210465;23;20067;-77
2024/01/08 00:49:44;;;;;;;12.57;6.93;;;-5.10;90.90;;;;;;6224854;23;20011;-76
2024/01/08 00:52:30;;;;;;;10.90;5.53;;;-5.10;91.00;;;;;;6228521;23;20044;-76
2024/01/08 00:55:16;;;;;;;16.05;7.05;;;-5.10;91.10;;;;;;6239623;23;20047;-76
2024/01/08 00:58:01;;;;;;;12.13;6.38;;;-5.20;91.20;;;;;;6241107;23;20008;-76
2024/01/08 01:00:47;;;;;;;11.82;5.85;;;-5.20;91.10;;;;;;6220727;23;20083;-76
2024/01/08 01:03:33;;;;;;;13.43;6.43;;;-5.20;91.10;;;;;;6209010;23;20008;-78
2024/01/08 01:06:23;;;;;;;10.90;6.18;;;-5.20;91.10;;;;;;6208902;23;20012;-68
2024/01/08 01:09:09;;;;;;;10.93;5.70;;;-5.20;91.10;;;;;;6210424;23;20009;-77
2024/01/08 01:11:56;;;;;;;12.25;5.82;;;-5.20;91.10;;;;;;6210162;23;20023;-77
2024/01/08 01:14:42;;;;;;;14.15;6.30;;;-5.20;91.40;;;;;;6209777;23;20020;-78
2024/01/08 01:17:28;;;;;;;12.05;5.65;;;-5.20;91.20;;;;;;6187716;23;20015;-78
2024/01/08 01:20:14;;;;;;;11.70;5.80;;;-5.20;91.10;;;;;;6210586;23;20005;-77
2024/01/08 01:23:00;;;;;;;10.73;5.45;;;-5.00;91.20;;;;;;6208699;23;20020;-76
2024/01/08 01:25:45;;;;;;;11.27;6.00;;;-5.10;91.10;;;;;;6209700;23;20071;-77
2024/01/08 01:28:31;;;;;;;11.35;5.75;;;-5.10;91.10;;;;;;6209520;23;20071;-75
2024/01/08 01:31:17;;;;;;;10.68;5.22;;;-5.10;91.20;;;;;;6188494;23;20044;-74
2024/01/08 01:34:07;;;;;;;13.40;5.30;;;-5.10;91.20;;;;;;6209052;23;20103;-74
2024/01/08 01:36:53;;;;;;;11.57;5.53;;;-5.10;91.20;;;;;;6210809;23;20401;-75
2024/01/08 01:39:39;;;;;;;14.43;5.72;;;-5.10;91.20;;;;;;6210723;23;20009;-77
2024/01/08 01:42:25;;;;;;;13.90;6.43;;;-5.10;91.20;;;;;;6211332;23;20018;-77
2024/01/08 01:45:10;;;;;;;9.30;5.53;;;-5.10;91.20;;;;;;6209590;23;20001;-78
2024/01/08 01:47:56;;;;;;;12.25;6.95;;;-5.10;91.20;;;;;;6210580;23;20075;-77
2024/01/08 01:50:42;;;;;;;8.70;5.43;;;-5.10;91.20;;;;;;6211107;23;20021;-74
2024/01/08 01:53:29;;;;;;;14.30;6.75;;;-5.10;91.40;;;;;;6209724;23;20076;-76
2024/01/08 01:56:15;;;;;;;11.55;5.75;;;-5.10;91.20;;;;;;6208962;23;20008;-77
2024/01/08 01:59:03;;;;;;;11.38;6.25;;;-5.10;91.20;;;;;;6209921;23;20146;-77
2024/01/08 02:01:49;;;;;;;10.32;5.18;;;-5.10;91.20;;;;;;6209988;23;20012;-77
2024/01/08 02:04:37;;;;;;;12.10;5.85;;;-5.10;91.20;;;;;;6210190;23;20008;-77
2024/01/08 02:07:22;;;;;;;11.60;5.65;;;-5.10;91.20;;;;;;6209178;23;20013;-76
2024/01/08 02:10:09;;;;;;;13.38;6.47;;;-5.10;91.20;;;;;;6209626;23;20008;-77
2024/01/08 02:12:55;;;;;;;11.45;5.75;;;-5.10;91.20;;;;;;6212037;23;20016;-77
2024/01/08 02:15:44;;;;;;;9.32;5.72;;;-5.10;91.20;;;;;;6187268;23;20446;-77
2024/01/08 02:18:30;;;;;;;13.63;6.95;;;-5.10;91.20;;;;;;6209993;23;20008;-78
2024/01/08 02:21:16;;;;;;;13.48;5.32;;;-5.10;91.20;;;;;;6209940;23;20428;-78
2024/01/08 02:24:04;;;;;;;11.35;6.13;;;-5.20;91.20;;;;;;6209643;23;20038;-78
2024/01/08 02:26:50;;;;;;;11.27;5.05;;;-5.20;91.10;;;;;;6210450;23;20012;-78
2024/01/08 02:29:36;;;;;;;11.75;5.88;;;-5.20;91.10;;;;;;6188173;23;20114;-79
2024/01/08 02:32:22;;;;;;;12.98;5.75;;;-5.10;91.10;;;;;;6207295;23;20437;-78
2024/01/08 02:35:08;;;;;;;12.90;6.03;;;-5.10;91.00;;;;;;6186987;23;20335;-77
2024/01/08 02:37:54;;;;;;;10.20;5.88;;;-5.20;91.00;;;;;;6208878;23;20005;-77
2024/01/08 02:40:43;;;;;;;8.43;4.75;;;-5.10;91.00;;;;;;6210017;23;20012;-77
2024/01/08 02:43:29;;;;;;;12.32;6.07;;;-5.20;90.90;;;;;;6209569;23;20441;-77
2024/01/08 02:46:15;;;;;;;9.30;5.35;;;-5.20;90.80;;;;;;6209301;23;20031;-76
2024/01/08 02:49:01;;;;;;;12.77;7.07;;;-5.20;90.80;;;;;;6211380;23;20315;-69
2024/01/08 02:51:47;;;;;;;12.10;5.80;;;-5.20;90.90;;;;;;6208311;23;20040;-69
2024/01/08 02:54:33;;;;;;;12.68;5.88;;;-5.20;90.90;;;;;;6209278;23;20150;-70
2024/01/08 02:57:19;;;;;;;12.32;5.05;;;-5.20;90.90;;;;;;6186363;23;20009;-64
2024/01/08 03:00:06;;;;;;;14.93;6.10;;;-5.20;90.90;;;;;;6187560;23;20032;-63
2024/01/08 03:02:52;;;;;;;10.05;5.57;;;-5.20;90.90;;;;;;6209360;23;20015;-64
2024/01/08 03:05:38;;;;;;;11.55;6.20;;;-5.20;90.90;;;;;;6187096;23;20009;-64
2024/01/08 03:08:24;;;;;;;9.85;5.97;;;-5.20;90.90;;;;;;6208495;23;20013;-64
2024/01/08 03:11:10;;;;;;;13.70;6.40;;;-5.20;90.90;;;;;;6209373;23;20019;-63
2024/01/08 03:13:56;;;;;;;10.40;5.32;;;-5.20;90.90;;;;;;6187729;23;20020;-64
2024/01/08 03:16:42;;;;;;;13.27;6.68;;;-5.20;90.90;;;;;;6187923;23;20020;-64
2024/01/08 03:19:28;;;;;;;9.20;4.85;;;-5.30;90.80;;;;;;6210130;23;20055;-64
2024/01/08 03:22:13;;;;;;;14.02;6.72;;;-5.30;90.80;;;;;;6207880;23;20511;-64
2024/01/08 03:24:59;;;;;;;11.02;5.93;;;-5.40;90.80;;;;;;6209356;23;20373;-64
2024/01/08 03:27:45;;;;;;;12.18;6.07;;;-5.40;90.80;;;;;;6209233;23;20012;-64
2024/01/08 03:30:31;;;;;;;9.02;4.90;;;-5.30;90.90;;;;;;6208988;23;20351;-63
2024/01/08 03:33:17;;;;;;;11.07;5.60;;;-5.40;90.80;;;;;;6208193;23;20024;-63
2024/01/08 03:36:03;;;;;;;9.60;5.43;;;-5.40;91.00;;;;;;6209477;23;20243;-64
2024/01/08 03:38:50;;;;;;;11.02;5.07;;;-5.40;90.90;;;;;;6211512;23;20051;-63
2024/01/08 03:41:36;;;;;;;12.13;6.28;;;-5.40;90.90;;;;;;6212129;23;20035;-70
2024/01/08 03:44:23;;;;;;;11.98;5.30;;;-5.50;90.80;;;;;;6210334;23;20008;-69
2024/01/08 03:47:10;;;;;;;11.43;6.15;;;-5.40;90.90;;;;;;6190053;23;20016;-69
2024/01/08 03:49:56;;;;;;;9.75;5.35;;;-5.50;90.90;;;;;;6209953;23;20457;-69
2024/01/08 03:52:42;;;;;;;13.75;5.15;;;-5.50;90.90;;;;;;6211466;23;20012;-69
2024/01/08 03:55:28;;;;;;;10.77;5.57;;;-5.50;90.90;;;;;;6214827;22;20017;-69
2024/01/08 03:58:14;;;;;;;11.20;5.25;;;-5.50;90.90;;;;;;6227920;23;20012;-69
2024/01/08 04:01:00;;;;;;;12.07;6.18;;;-5.50;90.90;;;;;;6227076;23;20361;-69
2024/01/08 04:03:46;;;;;;;11.40;5.30;;;-5.50;91.00;;;;;;6227253;23;20012;-69
2024/01/08 04:06:32;;;;;;;9.95;5.10;;;-5.50;91.00;;;;;;6221810;23;20063;-69
2024/01/08 04:09:18;;;;;;;11.75;6.22;;;-5.50;90.90;;;;;;6188412;23;20017;-69
2024/01/08 04:12:05;;;;;;;7.20;4.25;;;-5.50;90.90;;;;;;6211224;23;20031;-69
2024/01/08 04:14:51;;;;;;;11.02;5.47;;;-5.50;91.00;;;;;;6212319;23;20079;-70
2024/01/08 04:17:37;;;;;;;10.40;5.18;;;-5.50;91.00;;;;;;6188092;23;20005;-70
2024/01/08 04:20:23;;;;;;;10.63;5.55;;;-5.50;90.90;;;;;;6209857;23;20009;-70
2024/01/08 04:23:09;;;;;;;11.43;5.63;;;-5.50;91.00;;;;;;6210789;23;20027;-70
2024/01/08 04:25:55;;;;;;;10.88;4.53;;;-5.50;90.90;;;;;;6210030;23;20056;-70
2024/01/08 04:28:41;;;;;;;11.80;5.93;;;-5.50;90.90;;;;;;6210309;23;20005;-71
2024/01/08 04:31:28;;;;;;;9.65;6.03;;;-5.60;90.90;;;;;;6211080;23;20327;-70
2024/01/08 04:34:14;;;;;;;11.55;6.38;;;-5.50;90.90;;;;;;6209940;23;20399;-71
2024/01/08 04:37:00;;;;;;;10.75;5.88;;;-5.50;90.90;;;;;;6188938;23;20012;-71
2024/01/08 04:39:46;;;;;;;9.18;5.55;;;-5.60;90.90;;;;;;6211656;23;20075;-70
2024/01/08 04:42:32;;;;;;;10.57;5.25;;;-5.60;90.90;;;;;;6210338;23;20011;-71
2024/01/08 04:45:18;;;;;;;13.40;6.07;;;-5.60;90.90;;;;;;6208983;23;20471;-71
2024/01/08 04:48:04;;;;;;;10.27;5.00;;;-5.60;90.90;;;;;;6210182;23;20024;-70
2024/01/08 04:50:50;;;;;;;10.15;5.63;;;-5.60;90.90;;;;;;6211105;23;20009;-71
2024/01/08 04:53:36;;;;;;;8.95;5.32;;;-5.60;90.90;;;;;;6210873;23;20020;-71
2024/01/08 04:56:24;;;;;;;12.93;6.18;;;-5.60;90.90;;;;;;6210930;23;20031;-70
2024/01/08 04:59:09;;;;;;;11.98;5.72;;;-5.60;90.90;;;;;;6211062;23;20111;-71
2024/01/08 05:01:55;;;;;;;11.73;5.85;;;-5.50;91.00;;;;;;6208180;23;20009;-71
2024/01/08 05:04:42;;;;;;;15.00;6.22;;;-5.50;91.00;;;;;;6209630;23;20005;-71
2024/01/08 05:07:28;;;;;;;9.82;5.57;;;-5.50;90.90;;;;;;6211769;23;20340;-71
2024/01/08 05:10:14;;;;;;;8.15;4.85;;;-5.50;90.90;;;;;;6209289;23;20000;-71
2024/01/08 05:13:00;;;;;;;12.85;6.88;;;-5.50;91.00;;;;;;6209386;23;20047;-71
2024/01/08 05:15:46;;;;;;;12.60;5.78;;;-5.50;91.00;;;;;;6210128;23;20027;-70
2024/01/08 05:18:32;;;;;;;10.05;5.82;;;-5.40;91.00;;;;;;6209109;23;20100;-70
2024/01/08 05:21:18;;;;;;;13.50;6.72;;;-5.40;91.00;;;;;;6187008;23;20021;-71
2024/01/08 05:24:05;;;;;;;12.70;6.00;;;-5.40;91.10;;;;;;6211439;23;20452;-77
2024/01/08 05:26:50;;;;;;;10.05;5.85;;;-5.40;91.00;;;;;;6210543;23;20011;-76
2024/01/08 05:29:36;;;;;;;12.85;5.95;;;-5.40;91.00;;;;;;6211433;23;20187;-77
2024/01/08 05:32:22;;;;;;;11.63;5.20;;;-5.40;91.00;;;;;;6211432;23;20009;-77
2024/01/08 05:35:08;;;;;;;11.13;5.93;;;-5.50;91.00;;;;;;6209238;23;20104;-77
2024/01/08 05:37:56;;;;;;;12.18;6.32;;;-5.40;91.10;;;;;;6187337;23;20395;-76
2024/01/08 05:40:42;;;;;;;9.85;5.15;;;-5.40;91.10;;;;;;6188848;23;20020;-72
2024/01/08 05:43:28;;;;;;;10.50;5.30;;;-5.40;91.10;;;;;;6189789;23;20015;-70
2024/01/08 05:46:14;;;;;;;12.82;5.68;;;-5.40;91.10;;;;;;6190337;23;20074;-72
2024/01/08 05:49:00;;;;;;;11.82;6.20;;;-5.40;91.20;;;;;;6188497;23;20082;-72
2024/01/08 05:51:46;;;;;;;9.18;5.65;;;-5.40;91.20;;;;;;6208539;23;20015;-73
2024/01/08 05:54:32;;;;;;;9.77;5.10;;;-5.40;91.10;;;;;;6187299;23;20024;-73
2024/01/08 05:57:19;;;;;;;12.45;6.18;;;-5.40;91.20;;;;;;6209714;23;20152;-73
2024/01/08 06:00:06;;;;;;;11.15;5.97;;;-5.40;91.20;;;;;;6211455;23;20013;-73
2024/01/08 06:02:52;;;;;;;14.30;6.07;;;-5.40;91.20;;;;;;6209290;23;20464;-73
2024/01/08 06:05:38;;;;;;;9.98;5.32;;;-5.40;91.20;;;;;;6209889;23;20345;-74
2024/01/08 06:08:23;;;;;;;12.00;7.07;;;-5.40;91.20;;;;;;6208265;23;20440;-74
2024/01/08 06:11:09;;;;;;;25.95;6.65;;;-5.40;91.20;;;;;;6209291;23;20459;-74
2024/01/08 06:13:55;;;;;;;10.20;5.97;;;-5.40;91.30;;;;;;6206469;23;20057;-73
2024/01/08 06:16:41;;;;;;;12.77;6.03;;;-5.50;91.30;;;;;;6208439;23;20008;-71
2024/01/08 06:19:27;;;;;;;10.30;5.60;;;-5.50;91.30;;;;;;6209931;23;20040;-73
2024/01/08 06:22:13;;;;;;;11.13;6.57;;;-5.50;91.40;;;;;;6209981;23;20092;-73
2024/01/08 06:24:59;;;;;;;11.02;6.57;;;-5.50;91.40;;;;;;6211770;23;20012;-72
2024/01/08 06:27:45;;;;;;;11.48;6.25;;;-5.50;91.50;;;;;;6187882;23;20016;-72
2024/01/08 06:30:31;;;;;;;9.65;5.30;;;-5.50;91.50;;;;;;6211739;23;20009;-73
2024/01/08 06:33:17;;;;;;;12.15;6.28;;;-5.50;91.50;;;;;;6210228;23;20445;-73
2024/01/08 06:36:04;;;;;;;10.98;6.65;;;-5.50;91.60;;;;;;6209060;23;20046;-73
2024/01/08 06:38:50;;;;;;;12.00;6.72;;;-5.50;91.60;;;;;;6210342;23;20365;-73
2024/01/08 06:41:38;;;;;;;12.65;6.57;;;-5.40;91.60;;;;;;6209699;23;20004;-75
2024/01/08 06:44:24;;;;;;;14.52;6.93;;;-5.40;91.60;;;;;;6211021;23;20005;-74
2024/01/08 06:47:10;;;;;;;15.15;7.80;;;-5.40;91.60;;;;;;6210191;23;20083;-73
2024/01/08 06:49:56;;;;;;;14.15;6.50;;;-5.50;91.70;;;;;;6208061;23;20012;-74
2024/01/08 06:52:42;;;;;;;15.85;7.80;;;-5.50;91.70;;;;;;6207508;23;20012;-68
2024/01/08 06:55:28;;;;;;;12.07;7.05;;;-5.50;91.70;;;;;;6218487;23;20016;-70
2024/01/08 06:58:14;;;;;;;17.48;6.85;;;-5.50;91.90;;;;;;6221963;23;20012;-72
2024/01/08 07:01:00;;;;;;;14.18;6.68;;;-5.50;91.90;;;;;;6232958;23;19996;-70
2024/01/08 07:03:47;;;;;;;12.57;6.47;;;-5.50;91.90;;;;;;6230214;23;20516;-70
2024/01/08 07:06:33;;;;;;;12.80;6.82;;;-5.50;92.00;;;;;;6209113;23;20005;-71
2024/01/08 07:09:19;;;;;;;12.52;6.60;;;-5.40;92.10;;;;;;6205421;23;20078;-70
2024/01/08 07:12:06;;;;;;;14.70;7.35;;;-5.40;92.10;;;;;;6210169;23;20043;-70
2024/01/08 07:14:53;;;;;;;18.35;7.43;;;-5.40;92.10;;;;;;6210526;23;20021;-70
2024/01/08 07:17:39;;;;;;;12.20;6.80;;;-5.40;92.10;;;;;;6210419;23;20013;-70
2024/01/08 07:20:25;;;;;;;9.80;5.53;;;-5.40;92.10;;;;;;6188571;23;20357;-69
2024/01/08 07:23:13;;;;;;;15.98;7.25;;;-5.30;92.10;;;;;;6210872;23;20020;-70
2024/01/08 07:25:58;;;;;;;11.85;6.47;;;-5.30;92.20;;;;;;6211678;23;20091;-70
2024/01/08 07:28:45;;;;;;;12.32;6.68;;;-5.30;92.20;;;;;;6210853;23;20329;-70
2024/01/08 07:31:31;;;;;;;15.57;6.78;;;-5.30;92.20;;;;;;6211151;23;20012;-62
2024/01/08 07:34:19;;;;;;;10.57;6.53;;;-5.30;92.30;;;;;;6210022;23;20081;-62
2024/01/08 07:37:05;;;;;;;15.48;6.72;;;-5.20;92.30;;;;;;6211788;23;20004;-62
2024/01/08 07:39:50;;;;;;;13.65;6.78;;;-5.20;92.40;;;;;;6212469;23;20012;-62
2024/01/08 07:42:36;;;;;;;17.27;7.20;;;-5.20;92.40;;;;;;6208492;23;20009;-61
2024/01/08 07:45:24;;;;;;;11.07;6.00;;;-5.20;92.40;;;;;;6210503;23;20063;-62
2024/01/08 07:48:09;;;;;;;12.30;6.32;;;-5.20;92.50;;;;;;6211427;23;20012;-61
2024/01/08 07:50:55;;;;;;;17.30;7.22;;;-5.20;92.50;;;;;;6210233;23;20009;-62
2024/01/08 07:53:41;;;;;;;13.00;6.47;;;-5.20;92.80;;;;;;6188102;23;20016;-61
2024/01/08 07:56:27;;;;;;;14.27;7.75;;;-5.20;92.70;;;;;;6210350;23;20004;-60
2024/01/08 07:59:13;;;;;;;12.77;6.18;;;-5.20;92.70;;;;;;6211408;23;20466;-61
2024/01/08 08:01:59;;;;;;;14.98;7.15;;;-5.20;92.70;;;;;;6209449;23;20027;-61
2024/01/08 08:04:45;;;;;;;14.68;6.55;;;-5.10;92.80;;;;;;6214354;22;20020;-61
2024/01/08 08:07:35;;;;;;;13.50;8.13;;;-5.10;92.80;;;;;;6211462;23;20009;-61
2024/01/08 08:10:22;;;;;;;10.90;6.93;;;-5.00;93.00;;;;;;6209736;23;20040;-63
2024/01/08 08:13:08;;;;;;;15.38;7.15;;;-5.00;93.00;;;;;;6210348;23;20043;-61
2024/01/08 08:15:54;;;;;;;14.35;7.05;;;-5.00;92.90;;;;;;6191037;23;20026;-61
2024/01/08 08:18:40;;;;;;;15.35;7.65;;;-5.00;93.00;;;;;;6189175;23;20020;-61
2024/01/08 14:05:57;;;;;;;6.93;4.13;;;-2.40;83.00;;;;;;6128188;23;20033;-85
2024/01/08 14:08:42;;;;;;;7.90;3.70;;;-2.30;83.60;;;;;;6129611;23;20017;-86
2024/01/08 14:11:28;;;;;;;5.45;3.25;;;-2.40;83.70;;;;;;6129076;23;20006;-84
2024/01/08 14:14:14;;;;;;;7.22;3.80;;;-2.40;84.20;;;;;;6129393;23;20013;-86
2024/01/08 14:17:00;;;;;;;7.53;3.80;;;-2.40;84.40;;;;;;6129336;23;20534;-85
2024/01/08 14:19:46;;;;;;;9.18;4.05;;;-2.40;84.60;;;;;;6130956;23;20013;-85
2024/01/08 14:22:33;;;;;;;6.03;3.53;;;-2.30;84.80;;;;;;6109326;23;20335;-85
2024/01/08 14:25:19;;;;;;;6.95;3.67;;;-2.30;84.60;;;;;;6130254;23;20006;-86
2024/01/08 14:28:05;;;;;;;9.20;4.22;;;-2.30;84.90;;;;;;6128108;23;20061;-85
2024/01/08 14:30:51;;;;;;;8.27;3.90;;;-2.30;84.70;;;;;;6130020;23;20010;-84
2024/01/08 14:33:39;;;;;;;7.72;3.65;;;-2.30;85.10;;;;;;6128286;23;20057;-85
2024/01/08 14:36:26;;;;;;;8.25;4.10;;;-2.20;85.40;;;;;;6106071;23;20010;-85
2024/01/08 14:39:12;;;;;;;7.70;3.65;;;-2.30;84.70;;;;;;6109892;23;20346;-85
2024/01/08 14:41:58;;;;;;;7.35;3.90;;;-2.30;85.10;;;;;;6106511;23;20414;-84
2024/01/08 14:44:45;;;;;;;7.68;4.90;;;-2.30;85.30;;;;;;6109501;23;20042;-84
2024/01/08 14:47:31;;;;;;;7.80;4.35;;;-2.40;85.40;;;;;;6110784;23;20017;-84
2024/01/08 14:50:16;;;;;;;9.50;5.25;;;-2.40;85.40;;;;;;6135858;23;19997;-85
2024/01/08 14:53:04;;;;;;;7.22;4.47;;;-2.40;85.60;;;;;;6130100;23;20008;-85
2024/01/08 14:55:50;;;;;;;8.75;4.80;;;-2.50;85.80;;;;;;6117506;23;20005;-85
2024/01/08 14:58:39;;;;;;;8.07;4.35;;;-2.60;85.90;;;;;;6105668;23;20104;-85
2024/01/08 15:01:26;;;;;;;7.03;3.92;;;-2.60;86.20;;;;;;6111622;23;20010;-85
2024/01/08 15:04:12;;;;;;;8.40;4.63;;;-2.70;86.50;;;;;;6137902;23;20064;-85
2024/01/08 15:07:00;;;;;;;7.55;4.10;;;-2.70;86.70;;;;;;6178444;23;19997;-86
2024/01/08 15:09:47;;;;;;;10.85;4.50;;;-2.70;87.00;;;;;;6160635;23;20009;-84
2024/01/08 15:12:33;;;;;;;10.10;4.85;;;-2.80;87.50;;;;;;6179805;23;19996;-85
2024/01/08 15:15:19;;;;;;;10.07;5.57;;;-2.90;87.60;;;;;;6142637;23;20080;-85
2024/01/08 15:18:05;;;;;;;9.18;4.53;;;-3.00;88.10;;;;;;6131204;23;20065;-85
2024/01/08 15:20:52;;;;;;;8.43;4.93;;;-3.00;88.20;;;;;;6138192;23;20009;-85
2024/01/08 15:23:38;;;;;;;9.32;4.95;;;-3.00;88.50;;;;;;6129214;23;20014;-82
2024/01/08 15:26:24;;;;;;;10.15;5.60;;;-3.10;88.50;;;;;;6135910;23;20013;-83
2024/01/08 15:29:10;;;;;;;9.85;5.40;;;-3.10;89.20;;;;;;6134557;23;20009;-82
2024/01/08 15:31:56;;;;;;;10.35;4.70;;;-3.10;89.40;;;;;;6135513;23;20013;-81
2024/01/08 15:34:42;;;;;;;7.43;4.75;;;-3.20;89.50;;;;;;6134846;23;20009;-83
2024/01/08 15:37:31;;;;;;;9.13;5.05;;;-3.30;89.80;;;;;;6134703;23;20077;-83
2024/01/08 15:40:18;;;;;;;9.57;5.30;;;-3.20;89.70;;;;;;6132114;23;20374;-82
2024/01/08 15:43:04;;;;;;;8.80;5.47;;;-3.30;89.90;;;;;;6128888;23;20361;-83
2024/01/08 15:45:50;;;;;;;9.60;5.22;;;-3.30;90.00;;;;;;6131752;23;20001;-84
2024/01/08 15:48:36;;;;;;;11.43;5.75;;;-3.20;90.00;;;;;;6136192;23;20014;-83
2024/01/08 15:51:22;;;;;;;11.38;5.85;;;-3.20;90.10;;;;;;6156370;23;20437;-82
2024/01/08 15:54:08;;;;;;;9.35;4.05;;;-3.20;90.10;;;;;;6137758;23;20453;-83
2024/01/08 15:56:54;;;;;;;10.90;5.28;;;-3.30;90.30;;;;;;6161756;23;19986;-83
2024/01/08 15:59:42;;;;;;;10.40;4.85;;;-3.40;90.30;;;;;;6156154;23;20009;-84
2024/01/08 16:02:31;;;;;;;9.60;5.00;;;-3.40;90.40;;;;;;6157433;23;20037;-84
2024/01/08 16:05:17;;;;;;;11.27;6.43;;;-3.40;90.40;;;;;;6135506;23;20017;-83
2024/01/08 16:08:04;;;;;;;8.90;5.15;;;-3.40;90.40;;;;;;6136444;23;20012;-82
2024/01/08 16:10:50;;;;;;;8.55;5.05;;;-3.40;90.40;;;;;;6157652;23;20028;-83
2024/01/08 16:13:36;;;;;;;12.45;5.45;;;-3.30;90.60;;;;;;6135213;23;20005;-83
2024/01/08 16:16:22;;;;;;;11.40;6.00;;;-3.30;90.60;;;;;;6133129;23;20365;-84
2024/01/08 16:19:08;;;;;;;9.82;5.68;;;-3.40;90.60;;;;;;6134990;23;20525;-84
2024/01/08 16:21:55;;;;;;;10.15;5.32;;;-3.40;90.60;;;;;;6136591;23;20041;-85
2024/01/08 16:24:41;;;;;;;10.90;6.22;;;-3.50;90.60;;;;;;6131128;23;20005;-85
2024/01/08 16:27:29;;;;;;;9.80;4.80;;;-3.40;90.70;;;;;;6153025;23;20020;-85
2024/01/08 16:30:16;;;;;;;12.90;5.93;;;-3.40;90.70;;;;;;6135189;23;20438;-85
2024/01/08 16:33:02;;;;;;;9.73;5.63;;;-3.50;90.80;;;;;;6157634;23;20076;-86
2024/01/08 16:35:48;;;;;;;9.93;5.25;;;-3.40;90.80;;;;;;6137198;23;20008;-85
2024/01/08 16:38:38;;;;;;;12.80;6.32;;;-3.40;90.80;;;;;;6143016;23;20041;-85
2024/01/08 16:41:24;;;;;;;11.85;5.88;;;-3.40;90.90;;;;;;6138570;23;20024;-85
2024/01/08 16:44:11;;;;;;;9.98;5.50;;;-3.40;90.90;;;;;;6162195;23;20037;-85
2024/01/08 16:46:57;;;;;;;9.32;5.32;;;-3.40;90.90;;;;;;6137512;23;20009;-85
2024/01/08 19:05:24;;;;;;;10.57;5.38;;;-3.80;91.30;;;;;;6213322;23;20095;-61
2024/01/08 19:08:10;;;;;;;12.63;5.72;;;-3.80;91.30;;;;;;6210282;23;20014;-60
2024/01/08 19:10:56;;;;;;;10.52;5.53;;;-3.80;91.30;;;;;;6211419;23;20094;-60
2024/01/08 19:13:44;;;;;;;9.70;5.25;;;-3.80;91.30;;;;;;6210537;23;20016;-60
2024/01/08 19:16:30;;;;;;;9.88;5.15;;;-3.80;91.40;;;;;;6212201;23;20425;-62
2024/01/08 19:19:16;;;;;;;10.43;5.70;;;-3.80;91.30;;;;;;6209413;23;20015;-59
2024/01/08 19:22:05;;;;;;;10.57;6.03;;;-3.80;91.30;;;;;;6211270;23;20108;-61
2024/01/08 19:24:52;;;;;;;10.68;5.80;;;-3.80;91.30;;;;;;6211848;23;20529;-61
2024/01/08 19:27:38;;;;;;;12.73;6.28;;;-3.90;91.30;;;;;;6211485;23;20555;-62
2024/01/08 19:30:24;;;;;;;9.60;4.93;;;-3.90;91.20;;;;;;6187844;23;20035;-61
2024/01/08 19:33:10;;;;;;;12.55;6.20;;;-3.90;91.20;;;;;;6209216;23;20039;-61
2024/01/08 19:35:56;;;;;;;12.20;5.60;;;-3.90;91.20;;;;;;6207266;23;20008;-61
2024/01/08 19:38:42;;;;;;;12.98;5.63;;;-3.90;91.20;;;;;;6208953;23;20004;-62
2024/01/08 19:41:28;;;;;;;10.50;5.28;;;-3.90;91.20;;;;;;6210834;23;20040;-62
2024/01/08 19:44:15;;;;;;;11.68;6.05;;;-4.00;91.20;;;;;;6209795;23;20005;-62
2024/01/08 19:47:02;;;;;;;13.63;5.85;;;-3.90;91.30;;;;;;6208172;23;20015;-62
2024/01/08 19:49:48;;;;;;;11.75;6.05;;;-4.00;91.20;;;;;;6211037;23;20429;-63
2024/01/08 19:52:34;;;;;;;8.43;4.85;;;-3.90;91.20;;;;;;6221437;23;20036;-62
2024/01/08 19:55:20;;;;;;;13.38;5.70;;;-4.00;91.20;;;;;;6225752;23;20004;-62
2024/01/08 19:58:06;;;;;;;10.43;5.03;;;-4.00;91.20;;;;;;6209994;23;20446;-61
2024/01/08 20:00:52;;;;;;;9.20;5.45;;;-4.00;91.20;;;;;;6210035;23;20012;-62
2024/01/08 20:03:39;;;;;;;12.05;5.30;;;-4.00;91.20;;;;;;6210153;23;20044;-62
2024/01/08 20:06:25;;;;;;;10.07;6.00;;;-3.90;91.20;;;;;;6211931;23;20008;-62
2024/01/08 20:09:11;;;;;;;10.63;6.03;;;-3.90;91.20;;;;;;6212249;23;20209;-62
2024/01/08 20:11:57;;;;;;;11.30;5.80;;;-3.90;91.20;;;;;;6212418;23;20009;-61
2024/01/08 20:14:43;;;;;;;10.43;4.95;;;-3.90;91.20;;;;;;6211887;23;20430;-61
2024/01/08 20:17:29;;;;;;;9.00;5.40;;;-3.90;91.20;;;;;;6212023;23;20005;-61
2024/01/08 20:20:15;;;;;;;10.93;6.18;;;-3.90;91.20;;;;;;6211592;23;20464;-63
2024/01/08 20:23:01;;;;;;;8.52;5.25;;;-4.00;91.10;;;;;;6212316;23;20016;-62
2024/01/08 20:25:49;;;;;;;8.65;4.78;;;-4.00;91.10;;;;;;6212220;23;20074;-62
2024/01/08 20:28:35;;;;;;;11.05;5.13;;;-4.00;91.10;;;;;;6189846;23;20040;-61
2024/01/08 20:31:21;;;;;;;9.88;5.30;;;-4.00;91.10;;;;;;6190167;23;20080;-61
2024/01/08 20:34:07;;;;;;;12.15;5.68;;;-4.00;91.10;;;;;;6211245;23;20449;-61
2024/01/08 20:36:54;;;;;;;12.43;5.95;;;-4.00;91.10;;;;;;6211219;23;20043;-62
2024/01/08 20:39:39;;;;;;;9.80;5.45;;;-4.00;91.10;;;;;;6211982;23;20292;-62
2024/01/08 20:42:25;;;;;;;7.90;4.72;;;-3.90;91.10;;;;;;6211763;23;20422;-62
2024/01/08 20:45:14;;;;;;;9.48;4.63;;;-3.90;91.10;;;;;;6212328;23;20341;-62
2024/01/08 20:48:00;;;;;;;10.77;5.20;;;-3.90;91.10;;;;;;6208987;23;20043;-61
2024/01/08 20:50:46;;;;;;;11.95;7.07;;;-3.90;91.10;;;;;;6188584;23;20409;-62
2024/01/08 20:53:33;;;;;;;11.40;5.60;;;-3.90;91.10;;;;;;6189729;23;20013;-62
2024/01/08 20:56:19;;;;;;;12.35;6.18;;;-3.90;91.10;;;;;;6190962;23;20003;-61
2024/01/08 20:59:05;;;;;;;9.80;5.13;;;-3.90;91.10;;;;;;6209945;23;20005;-61
2024/01/08 21:01:51;;;;;;;9.63;5.65;;;-3.90;91.00;;;;;;6211691;23;20438;-61
2024/01/08 21:04:38;;;;;;;6.32;4.15;;;-3.80;91.00;;;;;;6211652;23;20128;-62
2024/01/08 21:07:24;;;;;;;9.40;4.93;;;-3.90;91.00;;;;;;6211912;23;20008;-64
2024/01/08 21:10:10;;;;;;;7.88;4.32;;;-3.80;91.00;;;;;;6212182;23;20429;-61
2024/01/08 21:12:56;;;;;;;8.73;4.38;;;-3.80;91.00;;;;;;6208606;23;20012;-63
2024/01/08 21:15:42;;;;;;;9.68;4.85;;;-3.80;91.00;;;;;;6211981;23;20433;-62
2024/01/08 21:18:28;;;;;;;8.40;4.68;;;-3.80;91.00;;;;;;6211629;23;20048;-62
2024/01/08 21:21:14;;;;;;;8.60;4.38;;;-3.80;90.90;;;;;;6210235;23;20017;-61
2024/01/08 21:24:00;;;;;;;9.77;5.13;;;-3.80;90.90;;;;;;6209979;23;20009;-61
2024/01/08 21:26:46;;;;;;;9.43;4.95;;;-3.80;90.90;;;;;;6210224;23;20009;-60
2024/01/08 21:29:33;;;;;;;8.18;5.10;;;-3.70;90.90;;;;;;6191371;23;20009;-62
2024/01/08 21:32:19;;;;;;;9.95;4.78;;;-3.70;90.90;;;;;;6207810;23;20015;-62
2024/01/08 21:35:05;;;;;;;9.85;4.80;;;-3.80;90.90;;;;;;6210322;23;20001;-63
2024/01/08 21:37:51;;;;;;;9.95;4.65;;;-3.70;90.90;;;;;;6211830;23;20079;-63
2024/01/08 21:40:37;;;;;;;11.93;5.90;;;-3.70;90.90;;;;;;6209420;23;20011;-63
2024/01/08 21:43:23;;;;;;;9.13;4.45;;;-3.70;90.90;;;;;;6211961;23;20008;-63
2024/01/08 21:46:09;;;;;;;8.65;4.78;;;-3.70;90.90;;;;;;6210024;23;20013;-63
2024/01/08 21:48:55;;;;;;;7.13;4.38;;;-3.70;90.80;;;;;;6208757;23;20036;-63
2024/01/08 21:51:41;;;;;;;10.02;5.15;;;-3.70;90.90;;;;;;6209009;23;20000;-62
2024/01/08 21:54:27;;;;;;;10.32;5.68;;;-3.70;90.90;;;;;;6211167;23;20322;-64
2024/01/08 21:57:13;;;;;;;9.82;5.40;;;-3.70;91.00;;;;;;6211665;23;20488;-63
2024/01/08 22:00:00;;;;;;;12.02;5.32;;;-3.70;90.80;;;;;;6189744;23;20028;-63
2024/01/08 22:02:47;;;;;;;11.40;5.47;;;-3.70;90.80;;;;;;6210567;23;20445;-63
2024/01/08 22:05:33;;;;;;;9.55;4.60;;;-3.70;90.80;;;;;;6213010;23;20020;-63
2024/01/08 22:08:19;;;;;;;9.32;4.25;;;-3.70;90.80;;;;;;6210746;23;20013;-63
2024/01/08 22:11:05;;;;;;;9.05;4.45;;;-3.70;90.70;;;;;;6212521;23;20075;-62
2024/01/08 22:13:51;;;;;;;9.15;4.68;;;-3.80;90.60;;;;;;6213433;23;20341;-63
2024/01/08 22:16:37;;;;;;;7.25;4.00;;;-3.80;90.60;;;;;;6211784;23;20007;-63
2024/01/08 22:19:23;;;;;;;7.60;4.45;;;-3.80;90.60;;;;;;6212161;23;20008;-62